sensor_id;sensor_type;location;lat;lon;timestamp;P1;durP1;ratioP1;P2;durP2;ratioP2
69369;SDS011;56530;42.640;23.372;2023-03-01T00:01:02;4.97;;;4.40;;
69369;SDS011;56530;42.640;23.372;2023-03-01T00:03:31;4.50;;;4.03;;
69369;SDS011;56530;42.640;23.372;2023-03-01T00:05:58;5.60;;;4.30;;
69369;SDS011;56530;42.640;23.372;2023-03-01T00:08:24;4.63;;;4.13;;
69369;SDS011;56530;42.640;23.372;2023-03-01T00:10:59;3.80;;;3.47;;
69369;SDS011;56530;42.640;23.372;2023-03-01T00:13:28;4.53;;;3.77;;
69369;SDS011;56530;42.640;23.372;2023-03-01T00:15:54;5.77;;;4.17;;
69369;SDS011;56530;42.640;23.372;2023-03-01T00:18:19;4.97;;;4.27;;
69369;SDS011;56530;42.640;23.372;2023-03-01T00:20:51;4.47;;;4.03;;
69369;SDS011;56530;42.640;23.372;2023-03-01T00:23:17;4.30;;;3.90;;
69369;SDS011;56530;42.640;23.372;2023-03-01T00:25:43;4.97;;;4.03;;
69369;SDS011;56530;42.640;23.372;2023-03-01T00:28:09;3.97;;;3.67;;
69369;SDS011;56530;42.640;23.372;2023-03-01T00:30:34;4.10;;;3.50;;
69369;SDS011;56530;42.640;23.372;2023-03-01T00:32:59;3.87;;;3.53;;
69369;SDS011;56530;42.640;23.372;2023-03-01T00:35:25;4.37;;;3.97;;
69369;SDS011;56530;42.640;23.372;2023-03-01T00:37:50;3.30;;;2.93;;
69369;SDS011;56530;42.640;23.372;2023-03-01T00:40:22;3.43;;;3.13;;
69369;SDS011;56530;42.640;23.372;2023-03-01T00:42:49;3.67;;;3.30;;
69369;SDS011;56530;42.640;23.372;2023-03-01T00:45:14;3.67;;;3.37;;
69369;SDS011;56530;42.640;23.372;2023-03-01T00:47:40;3.50;;;3.20;;
69369;SDS011;56530;42.640;23.372;2023-03-01T00:50:05;4.00;;;3.60;;
69369;SDS011;56530;42.640;23.372;2023-03-01T00:52:31;4.10;;;3.03;;
69369;SDS011;56530;42.640;23.372;2023-03-01T00:54:56;3.50;;;3.20;;
69369;SDS011;56530;42.640;23.372;2023-03-01T00:57:22;3.40;;;3.10;;
69369;SDS011;56530;42.640;23.372;2023-03-01T00:59:48;3.17;;;2.87;;
69369;SDS011;56530;42.640;23.372;2023-03-01T01:02:13;2.57;;;2.37;;
69369;SDS011;56530;42.640;23.372;2023-03-01T01:04:39;3.40;;;3.10;;
69369;SDS011;56530;42.640;23.372;2023-03-01T01:07:04;3.27;;;2.97;;
69369;SDS011;56530;42.640;23.372;2023-03-01T01:09:30;3.47;;;2.97;;
69369;SDS011;56530;42.640;23.372;2023-03-01T01:11:56;4.00;;;3.60;;
69369;SDS011;56530;42.640;23.372;2023-03-01T01:14:21;2.63;;;2.43;;
69369;SDS011;56530;42.640;23.372;2023-03-01T01:16:47;2.97;;;2.77;;
69369;SDS011;56530;42.640;23.372;2023-03-01T01:19:13;2.37;;;2.17;;
69369;SDS011;56530;42.640;23.372;2023-03-01T01:21:38;2.87;;;2.67;;
69369;SDS011;56530;42.640;23.372;2023-03-01T01:24:04;3.20;;;3.00;;
69369;SDS011;56530;42.640;23.372;2023-03-01T01:26:31;2.63;;;2.43;;
69369;SDS011;56530;42.640;23.372;2023-03-01T01:28:57;2.90;;;2.70;;
69369;SDS011;56530;42.640;23.372;2023-03-01T01:31:24;2.30;;;2.10;;
69369;SDS011;56530;42.640;23.372;2023-03-01T01:33:50;2.03;;;1.93;;
69369;SDS011;56530;42.640;23.372;2023-03-01T01:36:16;2.57;;;2.37;;
69369;SDS011;56530;42.640;23.372;2023-03-01T01:38:42;2.60;;;2.40;;
69369;SDS011;56530;42.640;23.372;2023-03-01T01:41:08;2.10;;;2.00;;
69369;SDS011;56530;42.640;23.372;2023-03-01T01:43:40;2.30;;;2.20;;
69369;SDS011;56530;42.640;23.372;2023-03-01T01:48:55;2.83;;;2.30;;
69369;SDS011;56530;42.640;23.372;2023-03-01T01:51:25;2.25;;;2.15;;
69369;SDS011;56530;42.640;23.372;2023-03-01T01:53:55;2.05;;;1.90;;
69369;SDS011;56530;42.640;23.372;2023-03-01T01:56:23;2.03;;;1.93;;
69369;SDS011;56530;42.640;23.372;2023-03-01T01:58:49;2.13;;;2.03;;
69369;SDS011;56530;42.640;23.372;2023-03-01T02:01:15;2.00;;;1.90;;
69369;SDS011;56530;42.640;23.372;2023-03-01T02:03:41;2.17;;;2.07;;
69369;SDS011;56530;42.640;23.372;2023-03-01T02:06:19;2.40;;;2.23;;
69369;SDS011;56530;42.640;23.372;2023-03-01T02:08:57;2.30;;;2.10;;
69369;SDS011;56530;42.640;23.372;2023-03-01T02:11:25;2.10;;;2.00;;
69369;SDS011;56530;42.640;23.372;2023-03-01T02:13:51;2.77;;;2.57;;
69369;SDS011;56530;42.640;23.372;2023-03-01T02:16:16;2.60;;;2.50;;
69369;SDS011;56530;42.640;23.372;2023-03-01T02:18:42;2.33;;;2.17;;
69369;SDS011;56530;42.640;23.372;2023-03-01T02:23:36;1.90;;;1.80;;
69369;SDS011;56530;42.640;23.372;2023-03-01T02:28:49;2.60;;;2.40;;
69369;SDS011;56530;42.640;23.372;2023-03-01T02:31:16;2.10;;;2.00;;
69369;SDS011;56530;42.640;23.372;2023-03-01T02:34:01;2.40;;;2.20;;
69369;SDS011;56530;42.640;23.372;2023-03-01T02:36:30;3.00;;;2.80;;
69369;SDS011;56530;42.640;23.372;2023-03-01T02:38:59;2.40;;;2.30;;
69369;SDS011;56530;42.640;23.372;2023-03-01T02:41:28;2.70;;;2.50;;
69369;SDS011;56530;42.640;23.372;2023-03-01T02:43:56;2.40;;;2.30;;
69369;SDS011;56530;42.640;23.372;2023-03-01T02:46:23;2.83;;;2.63;;
69369;SDS011;56530;42.640;23.372;2023-03-01T02:48:51;2.83;;;2.63;;
69369;SDS011;56530;42.640;23.372;2023-03-01T02:56:33;2.93;;;2.73;;
69369;SDS011;56530;42.640;23.372;2023-03-01T02:58:59;3.83;;;3.23;;
69369;SDS011;56530;42.640;23.372;2023-03-01T03:01:25;3.83;;;3.53;;
69369;SDS011;56530;42.640;23.372;2023-03-01T03:04:01;3.47;;;3.17;;
69369;SDS011;56530;42.640;23.372;2023-03-01T03:06:30;4.60;;;4.20;;
69369;SDS011;56530;42.640;23.372;2023-03-01T03:08:55;4.57;;;4.17;;
69369;SDS011;56530;42.640;23.372;2023-03-01T03:11:21;4.93;;;4.17;;
69369;SDS011;56530;42.640;23.372;2023-03-01T03:13:46;3.93;;;3.63;;
69369;SDS011;56530;42.640;23.372;2023-03-01T03:16:13;4.47;;;4.07;;
69369;SDS011;56530;42.640;23.372;2023-03-01T03:18:39;5.10;;;4.60;;
69369;SDS011;56530;42.640;23.372;2023-03-01T03:21:07;5.90;;;5.40;;
69369;SDS011;56530;42.640;23.372;2023-03-01T03:23:35;6.50;;;5.90;;
69369;SDS011;56530;42.640;23.372;2023-03-01T03:26:01;6.20;;;5.40;;
69369;SDS011;56530;42.640;23.372;2023-03-01T03:28:28;5.27;;;4.77;;
69369;SDS011;56530;42.640;23.372;2023-03-01T03:30:53;5.53;;;5.03;;
69369;SDS011;56530;42.640;23.372;2023-03-01T03:33:19;6.20;;;5.60;;
69369;SDS011;56530;42.640;23.372;2023-03-01T03:35:45;6.07;;;5.50;;
69369;SDS011;56530;42.640;23.372;2023-03-01T03:38:13;5.20;;;4.70;;
69369;SDS011;56530;42.640;23.372;2023-03-01T03:40:46;5.23;;;4.73;;
69369;SDS011;56530;42.640;23.372;2023-03-01T03:43:13;6.07;;;5.50;;
69369;SDS011;56530;42.640;23.372;2023-03-01T03:45:57;4.70;;;4.30;;
69369;SDS011;56530;42.640;23.372;2023-03-01T03:48:23;3.80;;;3.50;;
69369;SDS011;56530;42.640;23.372;2023-03-01T03:50:50;4.13;;;3.63;;
69369;SDS011;56530;42.640;23.372;2023-03-01T03:53:20;4.07;;;3.30;;
69369;SDS011;56530;42.640;23.372;2023-03-01T03:55:46;4.87;;;3.93;;
69369;SDS011;56530;42.640;23.372;2023-03-01T03:58:14;3.97;;;3.67;;
69369;SDS011;56530;42.640;23.372;2023-03-01T04:00:42;3.63;;;3.33;;
69369;SDS011;56530;42.640;23.372;2023-03-01T04:03:09;3.80;;;3.50;;
69369;SDS011;56530;42.640;23.372;2023-03-01T04:05:36;3.83;;;3.50;;
69369;SDS011;56530;42.640;23.372;2023-03-01T04:08:02;3.10;;;2.90;;
69369;SDS011;56530;42.640;23.372;2023-03-01T04:10:28;3.00;;;2.80;;
69369;SDS011;56530;42.640;23.372;2023-03-01T04:12:55;3.20;;;2.90;;
69369;SDS011;56530;42.640;23.372;2023-03-01T04:15:21;2.93;;;2.73;;
69369;SDS011;56530;42.640;23.372;2023-03-01T04:17:49;3.30;;;3.00;;
69369;SDS011;56530;42.640;23.372;2023-03-01T04:20:17;3.80;;;3.50;;
69369;SDS011;56530;42.640;23.372;2023-03-01T04:22:56;4.53;;;3.77;;
69369;SDS011;56530;42.640;23.372;2023-03-01T04:25:23;4.43;;;2.80;;
69369;SDS011;56530;42.640;23.372;2023-03-01T04:27:48;3.57;;;3.27;;
69369;SDS011;56530;42.640;23.372;2023-03-01T04:30:14;3.70;;;3.17;;
69369;SDS011;56530;42.640;23.372;2023-03-01T04:32:39;2.97;;;2.77;;
69369;SDS011;56530;42.640;23.372;2023-03-01T04:35:05;6.87;;;3.40;;
69369;SDS011;56530;42.640;23.372;2023-03-01T04:37:30;3.20;;;2.57;;
69369;SDS011;56530;42.640;23.372;2023-03-01T04:39:56;3.27;;;3.00;;
69369;SDS011;56530;42.640;23.372;2023-03-01T04:42:21;2.87;;;2.67;;
69369;SDS011;56530;42.640;23.372;2023-03-01T04:44:46;3.47;;;3.17;;
69369;SDS011;56530;42.640;23.372;2023-03-01T04:47:12;3.70;;;3.23;;
69369;SDS011;56530;42.640;23.372;2023-03-01T04:49:37;3.10;;;2.80;;
69369;SDS011;56530;42.640;23.372;2023-03-01T04:52:03;3.50;;;3.23;;
69369;SDS011;56530;42.640;23.372;2023-03-01T04:54:32;4.10;;;3.80;;
69369;SDS011;56530;42.640;23.372;2023-03-01T04:56:59;3.87;;;3.50;;
69369;SDS011;56530;42.640;23.372;2023-03-01T04:59:24;4.30;;;3.50;;
69369;SDS011;56530;42.640;23.372;2023-03-01T05:01:50;5.27;;;3.77;;
69369;SDS011;56530;42.640;23.372;2023-03-01T05:04:17;3.73;;;3.30;;
69369;SDS011;56530;42.640;23.372;2023-03-01T05:06:42;4.43;;;3.97;;
69369;SDS011;56530;42.640;23.372;2023-03-01T05:09:08;4.87;;;4.03;;
69369;SDS011;56530;42.640;23.372;2023-03-01T05:11:33;4.43;;;4.03;;
69369;SDS011;56530;42.640;23.372;2023-03-01T05:14:03;4.77;;;4.27;;
69369;SDS011;56530;42.640;23.372;2023-03-01T05:16:30;5.67;;;3.80;;
69369;SDS011;56530;42.640;23.372;2023-03-01T05:18:57;4.10;;;3.70;;
69369;SDS011;56530;42.640;23.372;2023-03-01T05:21:23;3.30;;;3.10;;
69369;SDS011;56530;42.640;23.372;2023-03-01T05:23:48;4.53;;;2.90;;
69369;SDS011;56530;42.640;23.372;2023-03-01T05:26:14;3.50;;;2.73;;
69369;SDS011;56530;42.640;23.372;2023-03-01T05:28:40;3.53;;;3.17;;
69369;SDS011;56530;42.640;23.372;2023-03-01T05:31:05;2.37;;;2.20;;
69369;SDS011;56530;42.640;23.372;2023-03-01T05:33:37;5.03;;;2.50;;
69369;SDS011;56530;42.640;23.372;2023-03-01T05:36:04;2.77;;;2.57;;
69369;SDS011;56530;42.640;23.372;2023-03-01T05:38:31;2.90;;;2.70;;
69369;SDS011;56530;42.640;23.372;2023-03-01T05:40:56;3.30;;;3.00;;
69369;SDS011;56530;42.640;23.372;2023-03-01T05:43:22;3.13;;;2.83;;
69369;SDS011;56530;42.640;23.372;2023-03-01T05:45:47;6.20;;;5.57;;
69369;SDS011;56530;42.640;23.372;2023-03-01T05:48:13;3.37;;;3.07;;
69369;SDS011;56530;42.640;23.372;2023-03-01T05:50:42;2.70;;;2.50;;
69369;SDS011;56530;42.640;23.372;2023-03-01T05:53:13;2.77;;;2.57;;
69369;SDS011;56530;42.640;23.372;2023-03-01T05:55:44;3.27;;;2.30;;
69369;SDS011;56530;42.640;23.372;2023-03-01T05:58:13;2.63;;;2.43;;
69369;SDS011;56530;42.640;23.372;2023-03-01T06:00:39;2.90;;;2.63;;
69369;SDS011;56530;42.640;23.372;2023-03-01T06:03:05;3.47;;;3.10;;
69369;SDS011;56530;42.640;23.372;2023-03-01T06:05:31;3.60;;;2.97;;
69369;SDS011;56530;42.640;23.372;2023-03-01T06:08:00;10.70;;;2.57;;
69369;SDS011;56530;42.640;23.372;2023-03-01T06:10:26;5.37;;;2.77;;
69369;SDS011;56530;42.640;23.372;2023-03-01T06:12:51;3.00;;;2.60;;
69369;SDS011;56530;42.640;23.372;2023-03-01T06:15:17;6.23;;;3.77;;
69369;SDS011;56530;42.640;23.372;2023-03-01T06:17:43;3.50;;;3.00;;
69369;SDS011;56530;42.640;23.372;2023-03-01T06:20:11;3.00;;;2.80;;
69369;SDS011;56530;42.640;23.372;2023-03-01T06:22:39;3.00;;;2.80;;
69369;SDS011;56530;42.640;23.372;2023-03-01T06:25:05;3.50;;;3.20;;
69369;SDS011;56530;42.640;23.372;2023-03-01T06:27:31;4.33;;;2.43;;
69369;SDS011;56530;42.640;23.372;2023-03-01T06:29:57;3.60;;;2.60;;
69369;SDS011;56530;42.640;23.372;2023-03-01T06:32:22;1.77;;;1.67;;
69369;SDS011;56530;42.640;23.372;2023-03-01T06:34:47;5.00;;;2.13;;
69369;SDS011;56530;42.640;23.372;2023-03-01T06:37:13;2.57;;;2.37;;
69369;SDS011;56530;42.640;23.372;2023-03-01T06:39:38;4.23;;;3.80;;
69369;SDS011;56530;42.640;23.372;2023-03-01T06:42:04;3.00;;;2.80;;
69369;SDS011;56530;42.640;23.372;2023-03-01T06:44:29;3.30;;;2.97;;
69369;SDS011;56530;42.640;23.372;2023-03-01T06:46:55;3.63;;;2.77;;
69369;SDS011;56530;42.640;23.372;2023-03-01T06:49:20;3.40;;;2.83;;
69369;SDS011;56530;42.640;23.372;2023-03-01T06:51:46;5.47;;;3.13;;
69369;SDS011;56530;42.640;23.372;2023-03-01T06:54:11;3.17;;;2.67;;
69369;SDS011;56530;42.640;23.372;2023-03-01T06:56:37;3.50;;;2.57;;
69369;SDS011;56530;42.640;23.372;2023-03-01T06:59:03;2.27;;;2.10;;
69369;SDS011;56530;42.640;23.372;2023-03-01T07:01:28;3.33;;;2.90;;
69369;SDS011;56530;42.640;23.372;2023-03-01T07:03:54;2.93;;;2.63;;
69369;SDS011;56530;42.640;23.372;2023-03-01T07:06:20;3.97;;;3.60;;
69369;SDS011;56530;42.640;23.372;2023-03-01T07:08:46;3.47;;;2.90;;
69369;SDS011;56530;42.640;23.372;2023-03-01T07:11:11;3.53;;;3.23;;
69369;SDS011;56530;42.640;23.372;2023-03-01T07:13:37;3.20;;;2.93;;
69369;SDS011;56530;42.640;23.372;2023-03-01T07:16:02;3.20;;;2.53;;
69369;SDS011;56530;42.640;23.372;2023-03-01T07:18:28;2.87;;;2.67;;
69369;SDS011;56530;42.640;23.372;2023-03-01T07:20:53;3.57;;;3.23;;
69369;SDS011;56530;42.640;23.372;2023-03-01T07:23:18;2.77;;;2.57;;
69369;SDS011;56530;42.640;23.372;2023-03-01T07:25:44;8.20;;;3.03;;
69369;SDS011;56530;42.640;23.372;2023-03-01T07:28:09;4.07;;;2.80;;
69369;SDS011;56530;42.640;23.372;2023-03-01T07:30:34;2.53;;;2.33;;
69369;SDS011;56530;42.640;23.372;2023-03-01T07:33:00;4.87;;;2.60;;
69369;SDS011;56530;42.640;23.372;2023-03-01T07:35:26;3.80;;;2.70;;
69369;SDS011;56530;42.640;23.372;2023-03-01T07:37:52;4.90;;;3.17;;
69369;SDS011;56530;42.640;23.372;2023-03-01T07:40:17;3.20;;;2.90;;
69369;SDS011;56530;42.640;23.372;2023-03-01T07:42:43;2.70;;;2.50;;
69369;SDS011;56530;42.640;23.372;2023-03-01T07:45:08;2.50;;;2.30;;
69369;SDS011;56530;42.640;23.372;2023-03-01T07:47:34;2.80;;;2.60;;
69369;SDS011;56530;42.640;23.372;2023-03-01T07:49:59;4.27;;;2.13;;
69369;SDS011;56530;42.640;23.372;2023-03-01T07:52:26;4.40;;;2.77;;
69369;SDS011;56530;42.640;23.372;2023-03-01T07:54:51;2.80;;;2.60;;
69369;SDS011;56530;42.640;23.372;2023-03-01T07:57:17;2.40;;;2.07;;
69369;SDS011;56530;42.640;23.372;2023-03-01T07:59:42;2.63;;;2.00;;
69369;SDS011;56530;42.640;23.372;2023-03-01T08:02:08;2.33;;;2.00;;
69369;SDS011;56530;42.640;23.372;2023-03-01T08:04:33;3.00;;;2.63;;
69369;SDS011;56530;42.640;23.372;2023-03-01T08:06:59;3.17;;;2.10;;
69369;SDS011;56530;42.640;23.372;2023-03-01T08:09:24;2.37;;;2.00;;
69369;SDS011;56530;42.640;23.372;2023-03-01T08:11:50;2.77;;;2.57;;
69369;SDS011;56530;42.640;23.372;2023-03-01T08:14:15;2.45;;;1.80;;
69369;SDS011;56530;42.640;23.372;2023-03-01T08:16:41;2.33;;;2.17;;
69369;SDS011;56530;42.640;23.372;2023-03-01T08:19:07;2.60;;;2.40;;
69369;SDS011;56530;42.640;23.372;2023-03-01T08:21:33;2.87;;;2.17;;
69369;SDS011;56530;42.640;23.372;2023-03-01T08:24:02;3.53;;;2.30;;
69369;SDS011;56530;42.640;23.372;2023-03-01T08:26:29;2.45;;;2.25;;
69369;SDS011;56530;42.640;23.372;2023-03-01T08:28:54;3.20;;;2.10;;
69369;SDS011;56530;42.640;23.372;2023-03-01T08:31:23;2.60;;;2.40;;
69369;SDS011;56530;42.640;23.372;2023-03-01T08:33:50;2.40;;;2.20;;
69369;SDS011;56530;42.640;23.372;2023-03-01T08:36:20;3.47;;;2.37;;
69369;SDS011;56530;42.640;23.372;2023-03-01T08:38:53;2.60;;;2.40;;
69369;SDS011;56530;42.640;23.372;2023-03-01T08:41:18;2.67;;;2.20;;
69369;SDS011;56530;42.640;23.372;2023-03-01T08:43:44;3.73;;;2.70;;
69369;SDS011;56530;42.640;23.372;2023-03-01T08:46:10;2.43;;;2.27;;
69369;SDS011;56530;42.640;23.372;2023-03-01T08:48:36;5.20;;;3.03;;
69369;SDS011;56530;42.640;23.372;2023-03-01T08:51:15;2.20;;;2.03;;
69369;SDS011;56530;42.640;23.372;2023-03-01T08:53:42;2.30;;;2.10;;
69369;SDS011;56530;42.640;23.372;2023-03-01T08:56:08;5.33;;;2.70;;
69369;SDS011;56530;42.640;23.372;2023-03-01T08:58:34;2.73;;;2.50;;
69369;SDS011;56530;42.640;23.372;2023-03-01T09:00:59;3.70;;;2.53;;
69369;SDS011;56530;42.640;23.372;2023-03-01T09:03:25;9.20;;;5.25;;
69369;SDS011;56530;42.640;23.372;2023-03-01T09:05:51;4.93;;;3.40;;
69369;SDS011;56530;42.640;23.372;2023-03-01T09:08:17;4.23;;;3.17;;
69369;SDS011;56530;42.640;23.372;2023-03-01T09:10:43;2.80;;;2.60;;
69369;SDS011;56530;42.640;23.372;2023-03-01T09:13:09;2.50;;;2.40;;
69369;SDS011;56530;42.640;23.372;2023-03-01T09:15:36;3.73;;;2.83;;
69369;SDS011;56530;42.640;23.372;2023-03-01T09:18:02;3.93;;;3.37;;
69369;SDS011;56530;42.640;23.372;2023-03-01T09:20:27;3.45;;;3.10;;
69369;SDS011;56530;42.640;23.372;2023-03-01T09:22:53;3.53;;;2.87;;
69369;SDS011;56530;42.640;23.372;2023-03-01T09:25:18;2.50;;;2.30;;
69369;SDS011;56530;42.640;23.372;2023-03-01T09:27:44;3.13;;;2.87;;
69369;SDS011;56530;42.640;23.372;2023-03-01T09:30:09;6.53;;;2.67;;
69369;SDS011;56530;42.640;23.372;2023-03-01T09:32:35;3.50;;;2.63;;
69369;SDS011;56530;42.640;23.372;2023-03-01T09:35:01;4.10;;;3.40;;
69369;SDS011;56530;42.640;23.372;2023-03-01T09:37:28;7.63;;;2.60;;
69369;SDS011;56530;42.640;23.372;2023-03-01T09:39:54;5.80;;;2.60;;
69369;SDS011;56530;42.640;23.372;2023-03-01T09:42:19;2.67;;;2.40;;
69369;SDS011;56530;42.640;23.372;2023-03-01T09:47:32;2.23;;;2.03;;
69369;SDS011;56530;42.640;23.372;2023-03-01T09:55:11;9.60;;;3.23;;
69369;SDS011;56530;42.640;23.372;2023-03-01T09:57:50;4.00;;;2.70;;
69369;SDS011;56530;42.640;23.372;2023-03-01T10:00:30;2.00;;;1.90;;
69369;SDS011;56530;42.640;23.372;2023-03-01T10:10:38;4.30;;;2.23;;
69369;SDS011;56530;42.640;23.372;2023-03-01T10:13:19;5.53;;;3.63;;
69369;SDS011;56530;42.640;23.372;2023-03-01T10:15:50;3.57;;;2.93;;
69369;SDS011;56530;42.640;23.372;2023-03-01T10:18:22;3.63;;;3.10;;
69369;SDS011;56530;42.640;23.372;2023-03-01T10:20:55;5.07;;;3.43;;
69369;SDS011;56530;42.640;23.372;2023-03-01T10:23:24;4.00;;;2.93;;
69369;SDS011;56530;42.640;23.372;2023-03-01T10:26:00;1.87;;;1.77;;
69369;SDS011;56530;42.640;23.372;2023-03-01T10:28:59;3.00;;;2.53;;
69369;SDS011;56530;42.640;23.372;2023-03-01T10:31:23;3.00;;;2.70;;
69369;SDS011;56530;42.640;23.372;2023-03-01T10:34:13;4.70;;;2.90;;
69369;SDS011;56530;42.640;23.372;2023-03-01T10:36:39;3.27;;;2.97;;
69369;SDS011;56530;42.640;23.372;2023-03-01T10:39:10;2.87;;;2.57;;
69369;SDS011;56530;42.640;23.372;2023-03-01T10:41:40;5.17;;;2.37;;
69369;SDS011;56530;42.640;23.372;2023-03-01T10:47:03;6.87;;;2.40;;
69369;SDS011;56530;42.640;23.372;2023-03-01T10:49:29;2.77;;;2.53;;
69369;SDS011;56530;42.640;23.372;2023-03-01T10:51:54;3.50;;;2.67;;
69369;SDS011;56530;42.640;23.372;2023-03-01T10:54:30;2.60;;;2.23;;
69369;SDS011;56530;42.640;23.372;2023-03-01T10:56:59;2.20;;;2.00;;
69369;SDS011;56530;42.640;23.372;2023-03-01T10:59:27;2.43;;;2.23;;
69369;SDS011;56530;42.640;23.372;2023-03-01T11:04:39;3.77;;;2.50;;
69369;SDS011;56530;42.640;23.372;2023-03-01T11:07:07;7.30;;;3.23;;
69369;SDS011;56530;42.640;23.372;2023-03-01T11:09:33;2.70;;;2.50;;
69369;SDS011;56530;42.640;23.372;2023-03-01T11:12:02;2.80;;;2.60;;
69369;SDS011;56530;42.640;23.372;2023-03-01T11:14:36;3.77;;;3.10;;
69369;SDS011;56530;42.640;23.372;2023-03-01T11:17:12;2.60;;;2.40;;
69369;SDS011;56530;42.640;23.372;2023-03-01T11:20:15;1.87;;;1.77;;
69369;SDS011;56530;42.640;23.372;2023-03-01T11:22:55;2.60;;;2.40;;
69369;SDS011;56530;42.640;23.372;2023-03-01T11:25:24;3.87;;;2.90;;
69369;SDS011;56530;42.640;23.372;2023-03-01T11:27:52;3.40;;;3.10;;
69369;SDS011;56530;42.640;23.372;2023-03-01T11:30:23;5.60;;;3.53;;
69369;SDS011;56530;42.640;23.372;2023-03-01T11:35:42;3.00;;;2.73;;
69369;SDS011;56530;42.640;23.372;2023-03-01T11:38:18;3.43;;;3.13;;
69369;SDS011;56530;42.640;23.372;2023-03-01T11:41:01;3.37;;;3.10;;
69369;SDS011;56530;42.640;23.372;2023-03-01T11:57:03;4.40;;;3.23;;
69369;SDS011;56530;42.640;23.372;2023-03-01T11:59:37;5.40;;;4.00;;
69369;SDS011;56530;42.640;23.372;2023-03-01T12:10:40;4.37;;;3.97;;
69369;SDS011;56530;42.640;23.372;2023-03-01T12:27:02;8.87;;;4.30;;
69369;SDS011;56530;42.640;23.372;2023-03-01T12:29:31;5.43;;;4.07;;
69369;SDS011;56530;42.640;23.372;2023-03-01T12:40:55;7.93;;;4.93;;
69369;SDS011;56530;42.640;23.372;2023-03-01T12:43:26;5.40;;;4.90;;
69369;SDS011;56530;42.640;23.372;2023-03-01T12:51:13;3.37;;;3.03;;
69369;SDS011;56530;42.640;23.372;2023-03-01T12:53:49;3.65;;;3.30;;
69369;SDS011;56530;42.640;23.372;2023-03-01T12:56:17;4.33;;;3.17;;
69369;SDS011;56530;42.640;23.372;2023-03-01T13:01:22;3.70;;;3.40;;
69369;SDS011;56530;42.640;23.372;2023-03-01T13:06:57;3.83;;;3.53;;
69369;SDS011;56530;42.640;23.372;2023-03-01T13:09:38;9.95;;;4.15;;
69369;SDS011;56530;42.640;23.372;2023-03-01T13:15:31;4.30;;;3.97;;
69369;SDS011;56530;42.640;23.372;2023-03-01T13:17:59;4.80;;;3.87;;
69369;SDS011;56530;42.640;23.372;2023-03-01T13:20:34;4.03;;;3.33;;
69369;SDS011;56530;42.640;23.372;2023-03-01T13:25:59;3.33;;;2.93;;
69369;SDS011;56530;42.640;23.372;2023-03-01T13:30:56;4.47;;;3.30;;
69369;SDS011;56530;42.640;23.372;2023-03-01T13:35:51;3.70;;;3.40;;
69369;SDS011;56530;42.640;23.372;2023-03-01T13:41:09;3.63;;;3.33;;
69369;SDS011;56530;42.640;23.372;2023-03-01T13:43:36;3.30;;;3.00;;
69369;SDS011;56530;42.640;23.372;2023-03-01T13:46:07;3.63;;;3.23;;
69369;SDS011;56530;42.640;23.372;2023-03-01T13:48:39;4.23;;;3.60;;
69369;SDS011;56530;42.640;23.372;2023-03-01T13:51:06;3.63;;;3.33;;
69369;SDS011;56530;42.640;23.372;2023-03-01T13:53:35;4.03;;;3.73;;
69369;SDS011;56530;42.640;23.372;2023-03-01T13:56:19;4.67;;;3.53;;
69369;SDS011;56530;42.640;23.372;2023-03-01T13:58:48;4.17;;;3.53;;
69369;SDS011;56530;42.640;23.372;2023-03-01T14:03:58;6.07;;;3.30;;
69369;SDS011;56530;42.640;23.372;2023-03-01T14:08:52;3.50;;;3.13;;
69369;SDS011;56530;42.640;23.372;2023-03-01T14:17:29;3.60;;;3.27;;
69369;SDS011;56530;42.640;23.372;2023-03-01T14:19:58;3.50;;;3.20;;
69369;SDS011;56530;42.640;23.372;2023-03-01T14:22:30;3.90;;;3.47;;
69369;SDS011;56530;42.640;23.372;2023-03-01T14:24:59;24.67;;;5.27;;
69369;SDS011;56530;42.640;23.372;2023-03-01T14:27:28;4.03;;;3.63;;
69369;SDS011;56530;42.640;23.372;2023-03-01T14:29:58;4.87;;;3.60;;
69369;SDS011;56530;42.640;23.372;2023-03-01T14:32:26;6.93;;;3.53;;
69369;SDS011;56530;42.640;23.372;2023-03-01T14:34:53;3.73;;;3.23;;
69369;SDS011;56530;42.640;23.372;2023-03-01T14:39:48;3.63;;;3.00;;
69369;SDS011;56530;42.640;23.372;2023-03-01T14:42:14;4.93;;;3.37;;
69369;SDS011;56530;42.640;23.372;2023-03-01T14:44:43;5.20;;;3.73;;
69369;SDS011;56530;42.640;23.372;2023-03-01T14:47:15;3.70;;;3.23;;
69369;SDS011;56530;42.640;23.372;2023-03-01T14:49:45;6.40;;;3.50;;
69369;SDS011;56530;42.640;23.372;2023-03-01T14:52:21;5.00;;;2.67;;
69369;SDS011;56530;42.640;23.372;2023-03-01T14:54:48;3.47;;;3.03;;
69369;SDS011;56530;42.640;23.372;2023-03-01T14:57:15;2.97;;;2.70;;
69369;SDS011;56530;42.640;23.372;2023-03-01T14:59:42;3.43;;;3.13;;
69369;SDS011;56530;42.640;23.372;2023-03-01T15:02:11;4.70;;;3.33;;
69369;SDS011;56530;42.640;23.372;2023-03-01T15:04:42;4.70;;;3.00;;
69369;SDS011;56530;42.640;23.372;2023-03-01T15:07:09;3.80;;;3.50;;
69369;SDS011;56530;42.640;23.372;2023-03-01T15:09:38;5.87;;;3.90;;
69369;SDS011;56530;42.640;23.372;2023-03-01T15:15:22;6.13;;;3.73;;
69369;SDS011;56530;42.640;23.372;2023-03-01T15:17:58;6.60;;;3.63;;
69369;SDS011;56530;42.640;23.372;2023-03-01T15:20:26;8.23;;;3.80;;
69369;SDS011;56530;42.640;23.372;2023-03-01T15:22:54;4.70;;;4.07;;
69369;SDS011;56530;42.640;23.372;2023-03-01T15:25:21;6.93;;;3.37;;
69369;SDS011;56530;42.640;23.372;2023-03-01T15:27:49;4.80;;;4.30;;
69369;SDS011;56530;42.640;23.372;2023-03-01T15:30:22;5.00;;;3.80;;
69369;SDS011;56530;42.640;23.372;2023-03-01T15:35:52;2.87;;;2.60;;
69369;SDS011;56530;42.640;23.372;2023-03-01T15:41:29;6.47;;;3.57;;
69369;SDS011;56530;42.640;23.372;2023-03-01T15:43:56;3.80;;;3.33;;
69369;SDS011;56530;42.640;23.372;2023-03-01T15:48:59;4.27;;;3.30;;
69369;SDS011;56530;42.640;23.372;2023-03-01T15:51:38;3.83;;;3.33;;
69369;SDS011;56530;42.640;23.372;2023-03-01T15:54:12;3.57;;;3.27;;
69369;SDS011;56530;42.640;23.372;2023-03-01T15:56:43;4.23;;;3.40;;
69369;SDS011;56530;42.640;23.372;2023-03-01T15:59:09;5.00;;;4.50;;
69369;SDS011;56530;42.640;23.372;2023-03-01T16:01:38;10.73;;;3.83;;
69369;SDS011;56530;42.640;23.372;2023-03-01T16:04:03;7.40;;;3.70;;
69369;SDS011;56530;42.640;23.372;2023-03-01T16:06:29;7.97;;;3.40;;
69369;SDS011;56530;42.640;23.372;2023-03-01T16:08:54;4.73;;;3.67;;
69369;SDS011;56530;42.640;23.372;2023-03-01T16:11:20;5.80;;;3.47;;
69369;SDS011;56530;42.640;23.372;2023-03-01T16:13:46;5.07;;;3.50;;
69369;SDS011;56530;42.640;23.372;2023-03-01T16:16:13;4.83;;;4.13;;
69369;SDS011;56530;42.640;23.372;2023-03-01T16:18:42;6.17;;;4.37;;
69369;SDS011;56530;42.640;23.372;2023-03-01T16:21:10;7.70;;;3.90;;
69369;SDS011;56530;42.640;23.372;2023-03-01T16:23:41;5.03;;;4.00;;
69369;SDS011;56530;42.640;23.372;2023-03-01T16:26:07;4.00;;;3.60;;
69369;SDS011;56530;42.640;23.372;2023-03-01T16:28:33;4.83;;;3.87;;
69369;SDS011;56530;42.640;23.372;2023-03-01T16:30:58;7.07;;;4.50;;
69369;SDS011;56530;42.640;23.372;2023-03-01T16:33:26;4.80;;;3.60;;
69369;SDS011;56530;42.640;23.372;2023-03-01T16:35:51;5.63;;;4.60;;
69369;SDS011;56530;42.640;23.372;2023-03-01T16:38:17;5.03;;;4.23;;
69369;SDS011;56530;42.640;23.372;2023-03-01T16:40:46;3.80;;;2.97;;
69369;SDS011;56530;42.640;23.372;2023-03-01T16:43:12;6.33;;;3.93;;
69369;SDS011;56530;42.640;23.372;2023-03-01T16:45:38;6.57;;;4.20;;
69369;SDS011;56530;42.640;23.372;2023-03-01T16:48:05;10.53;;;2.87;;
69369;SDS011;56530;42.640;23.372;2023-03-01T16:50:31;4.73;;;3.20;;